メインページ
METAR-TAF:

METAR-TAF

空港 :

岐阜基地

岐阜, 日本

緯度: 35-23N, 経度: 136-52E, 海抜: 39m

現時点の気象観測

当レポートは1時間12分前の09:07(UTC)に作成
変向風 1kt
気温 16°C
湿度 100%
気圧 1006 hPa
視程: 6000m
高度200ftの雲はほとんどない
高度400ftの千切れ雲あり
高度800ftの千切れ雲あり
小霧雨

METAR: RJNG 240907Z VRB01KT 6000 -DZ FEW002 BKN004 BKN008 16/16 Q1006 RMK 2ST002 5ST004 6ST008 A2972

時間: 19:19 (10:19 UTC)


TAF: 見つかりません

4,000以上の空港の気象観測と天気予報(METAR報とTAF報)

利用可能な観測所は地図上に黄色い丸と赤い丸で示す。

丸の上にカーソルを重ねると観測所名を参照できる。

次にクリックすると気象観測と天気予報を参照できる。

マップの切り替え:黒色「×」印の緑ボタンをクリックして拡大、「-」印の緑ボタンをクリックして縮小、緑色の三角印をクリックして隣りの地図に切り替え


METAR-TAF: